Map

Track Data

SID SEASON NUMBER BASIN SUBBASIN NAME ISO_TIME NATURE LAT LON WMO_WIND WMO_PRES WMO_AGENCY TRACK_TYPE DIST2LAND LANDFALL IFLAG USA_AGENCY USA_ATCF_ID USA_LAT USA_LON USA_RECORD USA_STATUS USA_WIND USA_PRES USA_SSHS USA_R34_NE USA_R34_SE USA_R34_SW USA_R34_NW USA_R50_NE USA_R50_SE USA_R50_SW USA_R50_NW USA_R64_NE USA_R64_SE USA_R64_SW USA_R64_NW USA_POCI USA_ROCI USA_RMW USA_EYE TOKYO_LAT TOKYO_LON TOKYO_GRADE TOKYO_WIND TOKYO_PRES TOKYO_R50_DIR TOKYO_R50_LONG TOKYO_R50_SHORT TOKYO_R30_DIR TOKYO_R30_LONG TOKYO_R30_SHORT TOKYO_LAND CMA_LAT CMA_LON CMA_CAT CMA_WIND CMA_PRES HKO_LAT HKO_LON HKO_CAT HKO_WIND HKO_PRES NEWDELHI_LAT NEWDELHI_LON NEWDELHI_GRADE NEWDELHI_WIND NEWDELHI_PRES NEWDELHI_CI NEWDELHI_DP NEWDELHI_POCI REUNION_LAT REUNION_LON REUNION_TYPE REUNION_WIND REUNION_PRES REUNION_TNUM REUNION_CI REUNION_RMW REUNION_R34_NE REUNION_R34_SE REUNION_R34_SW REUNION_R34_NW REUNION_R50_NE REUNION_R50_SE REUNION_R50_SW REUNION_R50_NW REUNION_R64_NE REUNION_R64_SE REUNION_R64_SW REUNION_R64_NW BOM_LAT BOM_LON BOM_TYPE BOM_WIND BOM_PRES BOM_TNUM BOM_CI BOM_RMW BOM_R34_NE BOM_R34_SE BOM_R34_SW BOM_R34_NW BOM_R50_NE BOM_R50_SE BOM_R50_SW BOM_R50_NW BOM_R64_NE BOM_R64_SE BOM_R64_SW BOM_R64_NW BOM_ROCI BOM_POCI BOM_EYE BOM_POS_METHOD BOM_PRES_METHOD NADI_LAT NADI_LON NADI_CAT NADI_WIND NADI_PRES WELLINGTON_LAT WELLINGTON_LON WELLINGTON_WIND WELLINGTON_PRES DS824_LAT DS824_LON DS824_STAGE DS824_WIND DS824_PRES TD9636_LAT TD9636_LON TD9636_STAGE TD9636_WIND TD9636_PRES TD9635_LAT TD9635_LON TD9635_WIND TD9635_PRES TD9635_ROCI NEUMANN_LAT NEUMANN_LON NEUMANN_CLASS NEUMANN_WIND NEUMANN_PRES MLC_LAT MLC_LON MLC_CLASS MLC_WIND MLC_PRES USA_GUST BOM_GUST BOM_GUST_PER REUNION_GUST REUNION_GUST_PER USA_SEAHGT USA_SEARAD_NE USA_SEARAD_SE USA_SEARAD_SW USA_SEARAD_NW STORM_SPEED STORM_DIR
1933234N13335 1933 43 NA NA NOT_NAMED 1933-08-22 06:00:00 TS 12.6000 -24.9000 25 hurdat_atl main 833 833 O_____________ hurdat_atl AL081933 12.6000 -24.9000 TD 25 -1 11 275
1933234N13335 1933 43 NA NA NOT_NAMED 1933-08-22 09:00:00 TS 12.6502 -25.4500 main 882 882 P_____________ AL081933 12.6502 -25.4500 TD 25 -1 11 275
1933234N13335 1933 43 NA NA NOT_NAMED 1933-08-22 12:00:00 TS 12.7000 -26.0000 25 hurdat_atl main 945 945 O_____________ hurdat_atl AL081933 12.7000 -26.0000 TD 25 -1 11 275
1933234N13335 1933 43 NA NA NOT_NAMED 1933-08-22 15:00:00 TS 12.7499 -26.5500 main 1008 1006 P_____________ AL081933 12.7499 -26.5500 TD 25 -1 11 275
1933234N13335 1933 43 NA NA NOT_NAMED 1933-08-22 18:00:00 TS 12.8000 -27.1000 25 hurdat_atl main 1058 1058 O_____________ hurdat_atl AL081933 12.8000 -27.1000 TD 25 -1 11 275
1933234N13335 1933 43 NA NA NOT_NAMED 1933-08-22 21:00:00 TS 12.8499 -27.6500 main 1122 1120 P_____________ AL081933 12.8499 -27.6500 TD 25 -1 11 275
1933234N13335 1933 43 NA NA NOT_NAMED 1933-08-23 00:00:00 TS 12.9000 -28.2000 25 hurdat_atl main 1173 1173 O_____________ hurdat_atl AL081933 12.9000 -28.2000 TD 25 -1 11 275
1933234N13335 1933 43 NA NA NOT_NAMED 1933-08-23 03:00:00 TS 12.9499 -28.7500 main 1237 1235 P_____________ AL081933 12.9499 -28.7500 TD 25 -1 11 275
1933234N13335 1933 43 NA NA NOT_NAMED 1933-08-23 06:00:00 TS 13.0000 -29.3000 25 hurdat_atl main 1288 1288 O_____________ hurdat_atl AL081933 13.0000 -29.3000 TD 25 -1 11 275
1933234N13335 1933 43 NA NA NOT_NAMED 1933-08-23 09:00:00 TS 13.0499 -29.8500 main 1352 1350 P_____________ AL081933 13.0499 -29.8500 TD 25 -1 11 275
1933234N13335 1933 43 NA NA NOT_NAMED 1933-08-23 12:00:00 TS 13.1000 -30.4000 25 hurdat_atl main 1404 1404 O_____________ hurdat_atl AL081933 13.1000 -30.4000 TD 25 -1 11 275
1933234N13335 1933 43 NA NA NOT_NAMED 1933-08-23 15:00:00 TS 13.1424 -30.9576 main 1468 1467 P_____________ AL081933 13.1424 -30.9576 TD 25 -1 11 275
1933234N13335 1933 43 NA NA NOT_NAMED 1933-08-23 18:00:00 TS 13.2000 -31.5000 25 hurdat_atl main 1520 1520 O_____________ hurdat_atl AL081933 13.2000 -31.5000 TD 25 -1 10 278
1933234N13335 1933 43 NA NA NOT_NAMED 1933-08-23 21:00:00 TS 13.2924 -32.0075 main 1572 1572 P_____________ AL081933 13.2924 -32.0075 TD 27 -1 10 282
1933234N13335 1933 43 NA NA NOT_NAMED 1933-08-24 00:00:00 TS 13.4000 -32.5000 30 hurdat_atl main 1625 1625 O_____________ hurdat_atl AL081933 13.4000 -32.5000 TD 30 -1 10 282
1933234N13335 1933 43 NA NA NOT_NAMED 1933-08-24 03:00:00 TS 13.4999 -32.9926 main 1677 1677 P_____________ AL081933 13.4999 -32.9926 TD 30 -1 10 282
1933234N13335 1933 43 NA NA NOT_NAMED 1933-08-24 06:00:00 TS 13.6000 -33.5000 30 hurdat_atl main 1730 1730 O_____________ hurdat_atl AL081933 13.6000 -33.5000 TD 30 -1 10 281
1933234N13335 1933 43 NA NA NOT_NAMED 1933-08-24 09:00:00 TS 13.6999 -34.0351 main 1782 1782 P_____________ AL081933 13.6999 -34.0351 TD 30 -1 11 281
1933234N13335 1933 43 NA NA NOT_NAMED 1933-08-24 12:00:00 TS 13.8000 -34.6000 30 hurdat_atl main 1846 1846 O_____________ hurdat_atl AL081933 13.8000 -34.6000 TD 30 -1 11 280
1933234N13335 1933 43 NA NA NOT_NAMED 1933-08-24 15:00:00 TS 13.8924 -35.1851 main 1909 1909 P_____________ AL081933 13.8924 -35.1851 TD 30 -1 12 280
1933234N13335 1933 43 NA NA NOT_NAMED 1933-08-24 18:00:00 TS 14.0000 -35.8000 30 hurdat_atl main 1944 1939 O_____________ hurdat_atl AL081933 14.0000 -35.8000 TD 30 -1 12 282
1933234N13335 1933 43 NA NA NOT_NAMED 1933-08-24 21:00:00 TS 14.1499 -36.4424 main 1941 1918 P_____________ AL081933 14.1499 -36.4424 TD 30 -1 13 283
1933234N13335 1933 43 NA NA NOT_NAMED 1933-08-25 00:00:00 TS 14.3000 -37.1000 30 hurdat_atl main 1918 1871 O_____________ hurdat_atl AL081933 14.3000 -37.1000 TD 30 -1 13 281
1933234N13335 1933 43 NA NA NOT_NAMED 1933-08-25 03:00:00 TS 14.4073 -37.7501 main 1863 1818 P_____________ AL081933 14.4073 -37.7501 TD 30 -1 13 279
1933234N13335 1933 43 NA NA NOT_NAMED 1933-08-25 06:00:00 TS 14.5000 -38.4000 30 hurdat_atl main 1818 1774 O_____________ hurdat_atl AL081933 14.5000 -38.4000 TD 30 -1 13 279
1933234N13335 1933 43 NA NA NOT_NAMED 1933-08-25 09:00:00 TS 14.5998 -39.0501 main 1766 1724 P_____________ AL081933 14.5998 -39.0501 TD 30 -1 13 279
1933234N13335 1933 43 NA NA NOT_NAMED 1933-08-25 12:00:00 TS 14.7000 -39.7000 30 hurdat_atl main 1724 1684 O_____________ hurdat_atl AL081933 14.7000 -39.7000 TD 30 -1 13 279
1933234N13335 1933 43 NA NA NOT_NAMED 1933-08-25 15:00:00 TS 14.7998 -40.3501 main 1676 1637 P_____________ AL081933 14.7998 -40.3501 TD 30 -1 13 279
1933234N13335 1933 43 NA NA NOT_NAMED 1933-08-25 18:00:00 TS 14.9000 -41.0000 30 hurdat_atl main 1637 1601 O_____________ hurdat_atl AL081933 14.9000 -41.0000 TD 30 -1 13 279
1933234N13335 1933 43 NA NA NOT_NAMED 1933-08-25 21:00:00 TS 14.9998 -41.6501 main 1594 1560 P_____________ AL081933 14.9998 -41.6501 TD 32 -1 13 279
1933234N13335 1933 43 NA NA NOT_NAMED 1933-08-26 00:00:00 TS 15.1000 -42.3000 35 hurdat_atl main 1560 1528 O_____________ hurdat_atl AL081933 15.1000 -42.3000 TS 35 0 13 279
1933234N13335 1933 43 NA NA NOT_NAMED 1933-08-26 03:00:00 TS 15.1923 -42.9501 main 1521 1492 P_____________ AL081933 15.1923 -42.9501 TS 35 0 13 279
1933234N13335 1933 43 NA NA NOT_NAMED 1933-08-26 06:00:00 TS 15.3000 -43.6000 35 hurdat_atl main 1492 1465 O_____________ hurdat_atl AL081933 15.3000 -43.6000 TS 35 0 13 282
1933234N13335 1933 43 NA NA NOT_NAMED 1933-08-26 09:00:00 TS 15.4498 -44.2500 main 1465 1436 P_____________ AL081933 15.4498 -44.2500 TS 35 0 13 283
1933234N13335 1933 43 NA NA NOT_NAMED 1933-08-26 12:00:00 TS 15.6000 -44.9000 35 hurdat_atl main 1436 1408 O_____________ hurdat_atl AL081933 15.6000 -44.9000 TS 35 0 13 281
1933234N13335 1933 43 NA NA NOT_NAMED 1933-08-26 15:00:00 TS 15.6998 -45.5502 main 1402 1377 P_____________ AL081933 15.6998 -45.5502 TS 37 0 13 279
1933234N13335 1933 43 NA NA NOT_NAMED 1933-08-26 18:00:00 TS 15.8000 -46.2000 40 hurdat_atl main 1377 1355 O_____________ hurdat_atl AL081933 15.8000 -46.2000 TS 40 0 13 281
1933234N13335 1933 43 NA NA NOT_NAMED 1933-08-26 21:00:00 TS 15.9423 -46.8500 main 1350 1340 P_____________ AL081933 15.9423 -46.8500 TS 40 0 13 283
1933234N13335 1933 43 NA NA NOT_NAMED 1933-08-27 00:00:00 TS 16.1000 -47.5000 40 hurdat_atl main 1340 1324 O_____________ hurdat_atl AL081933 16.1000 -47.5000 TS 40 0 13 284
1933234N13335 1933 43 NA NA NOT_NAMED 1933-08-27 03:00:00 TS 16.2498 -48.1501 main 1319 1314 P_____________ AL081933 16.2498 -48.1501 TS 40 0 13 284
1933234N13335 1933 43 NA NA NOT_NAMED 1933-08-27 06:00:00 TS 16.4000 -48.8000 40 hurdat_atl main 1315 1297 O_____________ hurdat_atl AL081933 16.4000 -48.8000 TS 40 0 13 284
1933234N13335 1933 43 NA NA NOT_NAMED 1933-08-27 09:00:00 TS 16.5497 -49.4351 main 1297 1286 P_____________ AL081933 16.5497 -49.4351 TS 42 0 13 284
1933234N13335 1933 43 NA NA NOT_NAMED 1933-08-27 12:00:00 TS 16.7000 -50.1000 45 hurdat_atl main 1289 1275 O_____________ hurdat_atl AL081933 16.7000 -50.1000 TS 45 0 14 283
1933234N13335 1933 43 NA NA NOT_NAMED 1933-08-27 15:00:00 TS 16.8499 -50.8351 main 1275 1235 P_____________ AL081933 16.8499 -50.8351 TS 45 0 15 282
1933234N13335 1933 43 NA NA NOT_NAMED 1933-08-27 18:00:00 TS 17.0000 -51.6000 45 hurdat_atl main 1235 1181 O_____________ hurdat_atl AL081933 17.0000 -51.6000 TS 45 0 15 281
1933234N13335 1933 43 NA NA NOT_NAMED 1933-08-27 21:00:00 TS 17.1421 -52.3427 main 1181 1127 P_____________ AL081933 17.1421 -52.3427 TS 47 0 15 282
1933234N13335 1933 43 NA NA NOT_NAMED 1933-08-28 00:00:00 TS 17.3000 -53.1000 50 hurdat_atl main 1127 1087 O_____________ hurdat_atl AL081933 17.3000 -53.1000 TS 50 0 15 283
1933234N13335 1933 43 NA NA NOT_NAMED 1933-08-28 03:00:00 TS 17.4923 -53.8926 main 1079 1036 P_____________ AL081933 17.4923 -53.8926 TS 52 0 16 285
1933234N13335 1933 43 NA NA NOT_NAMED 1933-08-28 06:00:00 TS 17.7000 -54.7000 55 hurdat_atl main 1036 1000 O_____________ hurdat_atl AL081933 17.7000 -54.7000 TS 55 0 16 285
1933234N13335 1933 43 NA NA NOT_NAMED 1933-08-28 09:00:00 TS 17.8997 -55.5002 main 1000 970 P_____________ AL081933 17.8997 -55.5002 TS 57 0 16 285
1933234N13335 1933 43 NA NA NOT_NAMED 1933-08-28 12:00:00 TS 18.1000 -56.3000 60 hurdat_atl main 970 897 O_____________ hurdat_atl AL081933 18.1000 -56.3000 TS 60 0 16 285
1933234N13335 1933 43 NA NA NOT_NAMED 1933-08-28 15:00:00 TS 18.3072 -57.1001 main 897 812 P_____________ AL081933 18.3072 -57.1001 TS 62 0 16 285
1933234N13335 1933 43 NA NA NOT_NAMED 1933-08-28 18:00:00 TS 18.5000 -57.9000 65 hurdat_atl main 812 727 O_____________ hurdat_atl AL081933 18.5000 -57.9000 HU 65 1 16 283
1933234N13335 1933 43 NA NA NOT_NAMED 1933-08-28 21:00:00 TS 18.6572 -58.7002 main 728 644 P_____________ AL081933 18.6572 -58.7002 HU 67 1 15 281
1933234N13335 1933 43 NA NA NOT_NAMED 1933-08-29 00:00:00 TS 18.8000 -59.5000 70 hurdat_atl main 644 561 O_____________ hurdat_atl AL081933 18.8000 -59.5000 HU 70 1 15 281
1933234N13335 1933 43 NA NA NOT_NAMED 1933-08-29 03:00:00 TS 18.9422 -60.3003 main 561 480 P_____________ AL081933 18.9422 -60.3003 HU 72 1 15 281
1933234N13335 1933 43 NA NA NOT_NAMED 1933-08-29 06:00:00 TS 19.1000 -61.1000 75 hurdat_atl main 480 412 O_____________ hurdat_atl AL081933 19.1000 -61.1000 HU 75 1 15 283
1933234N13335 1933 43 NA NA NOT_NAMED 1933-08-29 09:00:00 TS 19.2846 -61.8927 main 402 328 P_____________ AL081933 19.2846 -61.8927 HU 77 1 16 285
1933234N13335 1933 43 NA NA NOT_NAMED 1933-08-29 12:00:00 TS 19.5000 -62.7000 80 hurdat_atl main 328 264 O_____________ hurdat_atl AL081933 19.5000 -62.7000 HU 80 1 16 286
1933234N13335 1933 43 NA NA NOT_NAMED 1933-08-29 15:00:00 TS 19.7347 -63.5428 main 264 218 P_____________ AL081933 19.7347 -63.5428 HU 85 2 17 287
1933234N13335 1933 43 NA NA NOT_NAMED 1933-08-29 18:00:00 TS 20.0000 -64.4000 90 hurdat_atl main 218 207 O_____________ hurdat_atl AL081933 20.0000 -64.4000 HU 90 2 17 289
1933234N13335 1933 43 NA NA NOT_NAMED 1933-08-29 21:00:00 TS 20.2921 -65.2502 main 214 213 P_____________ AL081933 20.2921 -65.2502 HU 95 2 17 291
1933234N13335 1933 43 NA NA NOT_NAMED 1933-08-30 00:00:00 TS 20.6000 -66.1000 100 hurdat_atl main 246 246 O_____________ hurdat_atl AL081933 20.6000 -66.1000 HU 100 3 17 291
1933234N13335 1933 43 NA NA NOT_NAMED 1933-08-30 03:00:00 TS 20.9071 -66.9502 main 279 263 P_____________ AL081933 20.9071 -66.9502 HU 105 3 17 291
1933234N13335 1933 43 NA NA NOT_NAMED 1933-08-30 06:00:00 TS 21.2000 -67.8000 110 hurdat_atl main 263 249 O_____________ hurdat_atl AL081933 21.2000 -67.8000 HU 110 3 17 290
1933234N13335 1933 43 NA NA NOT_NAMED 1933-08-30 09:00:00 TS 21.4799 -68.6724 main 251 235 P_____________ AL081933 21.4799 -68.6724 HU 115 4 17 288
1933234N13335 1933 43 NA NA NOT_NAMED 1933-08-30 12:00:00 TS 21.7000 -69.5000 120 hurdat_atl main 240 227 O_____________ hurdat_atl AL081933 21.7000 -69.5000 HU 120 4 15 283
1933234N13335 1933 43 NA NA NOT_NAMED 1933-08-30 15:00:00 TS 21.8146 -70.2381 main 227 223 P_____________ AL081933 21.8146 -70.2381 HU 125 4 13 279
1933234N13335 1933 43 NA NA NOT_NAMED 1933-08-30 18:00:00 TS 21.9000 -70.9000 130 hurdat_atl main 230 178 O_____________ hurdat_atl AL081933 21.9000 -70.9000 HU 130 4 12 281
1933234N13335 1933 43 NA NA NOT_NAMED 1933-08-30 21:00:00 TS 22.0497 -71.5224 main 178 145 P_____________ AL081933 22.0497 -71.5224 HU 135 4 12 285
1933234N13335 1933 43 NA NA NOT_NAMED 1933-08-31 00:00:00 TS 22.2000 -72.1000 140 hurdat_atl main 145 129 O_____________ hurdat_atl AL081933 22.2000 -72.1000 HU 140 5 11 284
1933234N13335 1933 43 NA NA NOT_NAMED 1933-08-31 03:00:00 TS 22.3147 -72.6576 main 126 124 P_____________ AL081933 22.3147 -72.6576 HU 140 5 10 281
1933234N13335 1933 43 NA NA NOT_NAMED 1933-08-31 06:00:00 TS 22.4000 -73.2000 140 hurdat_atl main 134 134 O_____________ hurdat_atl AL081933 22.4000 -73.2000 HU 140 5 10 278
1933234N13335 1933 43 NA NA NOT_NAMED 1933-08-31 09:00:00 TS 22.4571 -73.7277 main 154 154 P_____________ AL081933 22.4571 -73.7277 HU 137 5 10 276
1933234N13335 1933 43 NA NA NOT_NAMED 1933-08-31 12:00:00 TS 22.5000 -74.3000 135 hurdat_atl main 168 168 O_____________ hurdat_atl AL081933 22.5000 -74.3000 HU 135 4 11 274
1933234N13335 1933 43 NA NA NOT_NAMED 1933-08-31 15:00:00 TS 22.5423 -74.9627 main 178 164 P_____________ AL081933 22.5423 -74.9627 HU 130 4 13 274
1933234N13335 1933 43 NA NA NOT_NAMED 1933-08-31 18:00:00 TS 22.6000 -75.7000 125 hurdat_atl main 164 133 O_____________ hurdat_atl AL081933 22.6000 -75.7000 HU 125 4 14 276
1933234N13335 1933 43 NA NA NOT_NAMED 1933-08-31 21:00:00 TS 22.6923 -76.4850 main 127 112 P_____________ AL081933 22.6923 -76.4850 HU 120 4 15 278
1933234N13335 1933 43 NA NA NOT_NAMED 1933-09-01 00:00:00 TS 22.8000 -77.3000 115 hurdat_atl main 112 73 O_____________ hurdat_atl AL081933 22.8000 -77.3000 HU 115 4 15 278
1933234N13335 1933 43 NA NA NOT_NAMED 1933-09-01 03:00:00 TS 22.9072 -78.1075 main 73 67 P_____________ AL081933 22.9072 -78.1075 HU 112 3 15 278
1933234N13335 1933 43 NA NA NOT_NAMED 1933-09-01 06:00:00 TS 23.0000 -78.9000 110 hurdat_atl main 76 33 O_____________ hurdat_atl AL081933 23.0000 -78.9000 HU 110 3 14 276
1933234N13335 1933 43 NA NA NOT_NAMED 1933-09-01 09:00:00 TS 23.0495 -79.6578 main 30 15 P_____________ AL081933 23.0495 -79.6578 HU 107 3 14 274
1933234N13335 1933 43 NA NA NOT_NAMED 1933-09-01 12:00:00 TS 23.1000 -80.4000 105 954 hurdat_atl main 15 11 O_____________ hurdat_atl AL081933 23.1000 -80.4000 HU 105 954 3 14 276
1933234N13335 1933 43 NA NA NOT_NAMED 1933-09-01 15:00:00 TS 23.1924 -81.1724 main 15 11 P_____________ AL081933 23.1924 -81.1724 HU 102 3 14 278
1933234N13335 1933 43 NA NA NOT_NAMED 1933-09-01 18:00:00 TS 23.3000 -81.9000 100 hurdat_atl main 22 22 O_____________ hurdat_atl AL081933 23.3000 -81.9000 HU 100 3 13 279
1933234N13335 1933 43 NA NA NOT_NAMED 1933-09-01 21:00:00 TS 23.3996 -82.5376 main 33 33 P_____________ AL081933 23.3996 -82.5376 HU 100 3 11 280
1933234N13335 1933 43 NA GM NOT_NAMED 1933-09-02 00:00:00 TS 23.5000 -83.1000 100 hurdat_atl main 63 63 O_____________ hurdat_atl AL081933 23.5000 -83.1000 HU 100 3 10 280
1933234N13335 1933 43 NA GM NOT_NAMED 1933-09-02 03:00:00 TS 23.5772 -83.6154 main 80 80 P_____________ AL081933 23.5772 -83.6154 HU 100 3 9 282
1933234N13335 1933 43 NA GM NOT_NAMED 1933-09-02 06:00:00 TS 23.7000 -84.1000 100 hurdat_atl main 108 108 O_____________ hurdat_atl AL081933 23.7000 -84.1000 HU 100 3 10 292
1933234N13335 1933 43 NA GM NOT_NAMED 1933-09-02 09:00:00 TS 23.9348 -84.5998 main 147 147 P_____________ AL081933 23.9348 -84.5998 HU 105 3 10 299
1933234N13335 1933 43 NA GM NOT_NAMED 1933-09-02 12:00:00 TS 24.2000 -85.1000 110 hurdat_atl main 201 201 O_____________ hurdat_atl AL081933 24.2000 -85.1000 HU 110 3 10 298
1933234N13335 1933 43 NA GM NOT_NAMED 1933-09-02 15:00:00 TS 24.4148 -85.5927 main 250 250 P_____________ AL081933 24.4148 -85.5927 HU 115 4 10 294
1933234N13335 1933 43 NA GM NOT_NAMED 1933-09-02 18:00:00 TS 24.6000 -86.1000 120 hurdat_atl main 301 301 O_____________ hurdat_atl AL081933 24.6000 -86.1000 HU 120 4 10 291
1933234N13335 1933 43 NA GM NOT_NAMED 1933-09-02 21:00:00 TS 24.7646 -86.6202 main 353 353 P_____________ AL081933 24.7646 -86.6202 HU 120 4 10 287
1933234N13335 1933 43 NA GM NOT_NAMED 1933-09-03 00:00:00 TS 24.9000 -87.2000 120 hurdat_atl main 380 380 O_____________ hurdat_atl AL081933 24.9000 -87.2000 HU 120 4 12 282
1933234N13335 1933 43 NA GM NOT_NAMED 1933-09-03 03:00:00 TS 25.0076 -87.8852 main 391 391 P_____________ AL081933 25.0076 -87.8852 HU 120 4 13 279
1933234N13335 1933 43 NA GM NOT_NAMED 1933-09-03 06:00:00 TS 25.1000 -88.6000 120 hurdat_atl main 402 402 O_____________ hurdat_atl AL081933 25.1000 -88.6000 HU 120 4 13 278
1933234N13335 1933 43 NA GM NOT_NAMED 1933-09-03 09:00:00 TS 25.1921 -89.2577 main 419 417 P_____________ AL081933 25.1921 -89.2577 HU 120 4 12 280
1933234N13335 1933 43 NA GM NOT_NAMED 1933-09-03 12:00:00 TS 25.3000 -89.9000 120 hurdat_atl main 420 413 O_____________ hurdat_atl AL081933 25.3000 -89.9000 HU 120 4 12 282
1933234N13335 1933 43 NA GM NOT_NAMED 1933-09-03 15:00:00 TS 25.4423 -90.5575 main 413 390 P_____________ AL081933 25.4423 -90.5575 HU 117 4 12 284
1933234N13335 1933 43 NA GM NOT_NAMED 1933-09-03 18:00:00 TS 25.6000 -91.2000 115 hurdat_atl main 391 379 O_____________ hurdat_atl AL081933 25.6000 -91.2000 HU 115 4 12 286
1933234N13335 1933 43 NA GM NOT_NAMED 1933-09-03 21:00:00 TS 25.7646 -91.8000 main 379 379 P_____________ AL081933 25.7646 -91.8000 HU 115 4 11 286
1933234N13335 1933 43 NA GM NOT_NAMED 1933-09-04 00:00:00 TS 25.9000 -92.4000 115 hurdat_atl main 386 386 O_____________ hurdat_atl AL081933 25.9000 -92.4000 HU 115 4 11 280
1933234N13335 1933 43 NA GM NOT_NAMED 1933-09-04 03:00:00 TS 25.9649 -93.0503 main 393 339 P_____________ AL081933 25.9649 -93.0503 HU 115 4 12 275
1933234N13335 1933 43 NA GM NOT_NAMED 1933-09-04 06:00:00 TS 26.0000 -93.7000 115 hurdat_atl main 339 279 O_____________ hurdat_atl AL081933 26.0000 -93.7000 HU 115 4 12 274
1933234N13335 1933 43 NA GM NOT_NAMED 1933-09-04 09:00:00 TS 26.0499 -94.3300 main 279 219 P_____________ AL081933 26.0499 -94.3300 HU 112 3 11 275
1933234N13335 1933 43 NA GM NOT_NAMED 1933-09-04 12:00:00 TS 26.1000 -94.9000 110 hurdat_atl main 219 171 O_____________ hurdat_atl AL081933 26.1000 -94.9000 HU 110 3 9 276
1933234N13335 1933 43 NA GM NOT_NAMED 1933-09-04 15:00:00 TS 26.1572 -95.3800 main 171 131 P_____________ AL081933 26.1572 -95.3800 HU 110 3 8 277
1933234N13335 1933 43 NA GM NOT_NAMED 1933-09-04 18:00:00 TS 26.2000 -95.8000 110 hurdat_atl main 131 92 O_____________ hurdat_atl AL081933 26.2000 -95.8000 HU 110 3 7 275
1933234N13335 1933 43 NA GM NOT_NAMED 1933-09-04 21:00:00 TS 26.2206 -96.1979 main 92 54 P_____________ AL081933 26.2206 -96.1979 HU 110 3 7 270
1933234N13335 1933 43 NA GM NOT_NAMED 1933-09-05 00:00:00 TS 26.2000 -96.6000 110 hurdat_atl main 54 14 O_____________ hurdat_atl AL081933 26.2000 -96.6000 HU 110 3 8 262
1933234N13335 1933 43 NA GM NOT_NAMED 1933-09-05 03:00:00 TS 26.1176 -97.0483 main 14 9 P_____________ AL081933 26.1176 -97.0483 HU 110 3 8 259
1933234N13335 1933 43 NA GM NOT_NAMED 1933-09-05 04:00:00 TS 26.1000 -97.2000 110 940 hurdat_atl main 9 0 O_____________ hurdat_atl AL081933 26.1000 -97.2000 L HU 110 940 3 8 268
1933234N13335 1933 43 NA NA NOT_NAMED 1933-09-05 06:00:00 TS 26.1000 -97.5000 90 hurdat_atl main 0 0 O_____________ hurdat_atl AL081933 26.1000 -97.5000 HU 90 2 8 263
1933234N13335 1933 43 NA NA NOT_NAMED 1933-09-05 09:00:00 TS 26.0232 -97.9501 main 0 0 P_____________ AL081933 26.0232 -97.9501 HU 75 1 8 256
1933234N13335 1933 43 NA NA NOT_NAMED 1933-09-05 12:00:00 TS 25.9000 -98.4000 60 hurdat_atl main 0 0 O_____________ hurdat_atl AL081933 25.9000 -98.4000 TS 60 0 8 254
1933234N13335 1933 43 NA NA NOT_NAMED 1933-09-05 15:00:00 TS 25.7925 -98.8500 main 0 0 P_____________ AL081933 25.7925 -98.8500 TS 47 0 8 256
1933234N13335 1933 43 NA NA NOT_NAMED 1933-09-05 18:00:00 TS 25.7000 -99.3000 35 hurdat_atl main 0 O_____________ hurdat_atl AL081933 25.7000 -99.3000 TS 35 0 8 257

About IBTrACS Database

This database is a web-friendly format of International Best Track Archive for Climate Stewardship (IBTrACS), a global best track data archive curated by NOAA dating back to 1842.

Updated: 2021-10-21